createdAt,value
2022-12-14T00:00:43.319Z,951.03
2022-12-14T00:01:01.108Z,951.03
2022-12-14T00:01:32.002Z,951.03
2022-12-14T00:02:03.020Z,950.93
2022-12-14T00:02:34.171Z,950.93
2022-12-14T00:03:05.063Z,951.03
2022-12-14T00:03:35.984Z,951.03
2022-12-14T00:04:06.943Z,950.93
2022-12-14T00:04:37.912Z,950.93
2022-12-14T00:05:09.001Z,951.03
2022-12-14T00:05:40.939Z,951.03
2022-12-14T00:06:10.952Z,951.03
2022-12-14T00:06:41.930Z,951.03
2022-12-14T00:07:12.902Z,950.93
2022-12-14T00:07:43.904Z,950.93
2022-12-14T00:08:14.898Z,951.03
2022-12-14T00:08:45.897Z,951.03
2022-12-14T00:09:16.973Z,950.93
2022-12-14T00:09:47.961Z,950.93
2022-12-14T00:10:18.963Z,950.93
2022-12-14T00:10:50.908Z,950.93
2022-12-14T00:11:20.908Z,950.83
2022-12-14T00:11:51.960Z,950.83
2022-12-14T00:12:22.907Z,950.73
2022-12-14T00:12:54.012Z,950.73
2022-12-14T00:13:24.894Z,950.83
2022-12-14T00:13:55.905Z,950.83
2022-12-14T00:14:26.926Z,951.03
2022-12-14T00:14:57.887Z,951.03
2022-12-14T00:15:41.364Z,950.83
2022-12-14T00:16:01.144Z,950.83
2022-12-14T00:16:30.904Z,950.93
2022-12-14T00:17:02.148Z,951.03
2022-12-14T00:17:33.166Z,951.03
2022-12-14T00:18:03.958Z,950.93
2022-12-14T00:18:34.907Z,950.93
2022-12-14T00:19:05.897Z,951.03
2022-12-14T00:19:36.912Z,951.03
2022-12-14T00:20:07.986Z,951.13
2022-12-14T00:20:38.921Z,951.13
2022-12-14T00:21:10.916Z,951.13
2022-12-14T00:21:40.970Z,951.13
2022-12-14T00:22:11.920Z,951.23
2022-12-14T00:22:42.911Z,951.23
2022-12-14T00:23:13.919Z,951.23
2022-12-14T00:23:44.910Z,951.23
2022-12-14T00:24:15.946Z,951.03
2022-12-14T00:24:46.925Z,951.03
2022-12-14T00:25:17.903Z,951.34
2022-12-14T00:25:49.007Z,951.34
2022-12-14T00:26:20.895Z,951.03
2022-12-14T00:26:50.958Z,951.03
2022-12-14T00:27:21.901Z,951.13
2022-12-14T00:27:52.979Z,951.13
2022-12-14T00:28:24.283Z,951.34
2022-12-14T00:28:54.917Z,951.34
2022-12-14T00:29:25.949Z,951.13
2022-12-14T00:29:56.933Z,951.13
2022-12-14T00:30:40.312Z,951.13
2022-12-14T00:30:59.001Z,951.13
2022-12-14T00:31:30.967Z,951.13
2022-12-14T00:32:01.037Z,951.13
2022-12-14T00:32:31.956Z,950.93
2022-12-14T00:33:02.948Z,951.34
2022-12-14T00:33:33.925Z,951.34
2022-12-14T00:34:04.948Z,951.13
2022-12-14T00:34:35.901Z,951.13
2022-12-14T00:35:06.946Z,951.03
2022-12-14T00:35:37.911Z,951.03
2022-12-14T00:36:08.908Z,951.03
2022-12-14T00:36:40.944Z,951.03
2022-12-14T00:37:10.923Z,950.93
2022-12-14T00:37:41.914Z,950.93
2022-12-14T00:38:12.903Z,951.03
2022-12-14T00:38:43.961Z,951.03
2022-12-14T00:39:14.960Z,951.03
2022-12-14T00:39:45.892Z,951.03
2022-12-14T00:40:16.957Z,951.13
2022-12-14T00:40:47.945Z,951.13
2022-12-14T00:41:19.124Z,951.13
2022-12-14T00:41:50.945Z,951.13
2022-12-14T00:42:20.927Z,951.23
2022-12-14T00:42:51.900Z,951.23
2022-12-14T00:43:22.936Z,950.73
2022-12-14T00:43:53.908Z,950.73
2022-12-14T00:44:24.883Z,951.03
2022-12-14T00:44:55.952Z,951.03
2022-12-14T00:45:39.300Z,950.83
2022-12-14T00:45:57.937Z,950.83
2022-12-14T00:46:28.969Z,950.93
2022-12-14T00:47:01.026Z,950.93
2022-12-14T00:47:33.828Z,950.83
2022-12-14T00:48:02.027Z,951.03
2022-12-14T00:48:33.220Z,951.03
2022-12-14T00:49:03.968Z,950.93
2022-12-14T00:49:34.898Z,950.93
2022-12-14T00:50:05.931Z,951.03
2022-12-14T00:50:36.919Z,951.03
2022-12-14T00:51:07.949Z,950.93
2022-12-14T00:51:38.942Z,950.93
2022-12-14T00:52:10.910Z,950.93
2022-12-14T00:52:40.943Z,950.93
2022-12-14T00:53:11.921Z,951.23
2022-12-14T00:53:42.886Z,951.23
2022-12-14T00:54:13.891Z,951.13
2022-12-14T00:54:44.905Z,951.13
2022-12-14T00:55:15.887Z,951.03
2022-12-14T00:55:49.592Z,951.03
2022-12-14T00:56:17.938Z,951.03
2022-12-14T00:56:48.890Z,951.03
2022-12-14T00:57:20.893Z,950.93
2022-12-14T00:57:50.888Z,950.93
2022-12-14T00:58:21.917Z,951.03
2022-12-14T00:58:52.949Z,951.03
2022-12-14T00:59:27.233Z,951.03
2022-12-14T00:59:54.946Z,951.03
2022-12-14T01:00:38.292Z,951.03
2022-12-14T01:00:56.901Z,951.03
2022-12-14T01:01:27.988Z,950.83
2022-12-14T01:01:59.090Z,950.83
2022-12-14T01:02:30.970Z,950.93
2022-12-14T01:03:00.989Z,950.93
2022-12-14T01:03:32.576Z,950.93
2022-12-14T01:04:03.037Z,951.13
2022-12-14T01:04:33.932Z,951.13
2022-12-14T01:05:04.892Z,951.03
2022-12-14T01:05:35.966Z,951.03
2022-12-14T01:06:06.912Z,950.83
2022-12-14T01:06:37.911Z,950.83
2022-12-14T01:07:08.963Z,951.03
2022-12-14T01:07:40.894Z,951.03
2022-12-14T01:08:10.902Z,950.93
2022-12-14T01:08:41.963Z,950.93
2022-12-14T01:09:12.878Z,950.93
2022-12-14T01:09:43.880Z,950.93
2022-12-14T01:10:14.934Z,951.23
2022-12-14T01:10:45.887Z,951.23
2022-12-14T01:11:16.939Z,950.93
2022-12-14T01:11:47.904Z,950.93
2022-12-14T01:12:18.892Z,951.13
2022-12-14T01:12:50.872Z,951.13
2022-12-14T01:13:20.884Z,951.03
2022-12-14T01:13:51.893Z,951.03
2022-12-14T01:14:22.889Z,951.13
2022-12-14T01:14:53.923Z,951.13
2022-12-14T01:15:37.309Z,950.73
2022-12-14T01:15:55.936Z,950.73
2022-12-14T01:16:26.890Z,951.03
2022-12-14T01:16:57.891Z,951.03
2022-12-14T01:17:28.892Z,950.83
2022-12-14T01:18:01.068Z,950.83
2022-12-14T01:18:30.989Z,950.93
2022-12-14T01:19:02.006Z,950.93
2022-12-14T01:19:32.950Z,950.93
2022-12-14T01:20:03.912Z,950.73
2022-12-14T01:20:34.889Z,950.73
2022-12-14T01:21:05.906Z,950.93
2022-12-14T01:21:36.893Z,950.93
2022-12-14T01:22:07.908Z,950.83
2022-12-14T01:22:38.917Z,950.83
2022-12-14T01:23:10.904Z,950.73
2022-12-14T01:23:40.895Z,950.73
2022-12-14T01:24:11.928Z,950.73
2022-12-14T01:24:42.873Z,950.73
2022-12-14T01:25:13.928Z,950.73
2022-12-14T01:25:44.970Z,950.73
2022-12-14T01:26:15.952Z,950.93
2022-12-14T01:26:46.896Z,950.93
2022-12-14T01:27:17.951Z,950.73
2022-12-14T01:27:48.895Z,950.73
2022-12-14T01:28:20.897Z,950.52
2022-12-14T01:28:50.891Z,950.52
2022-12-14T01:29:22.143Z,950.73
2022-12-14T01:29:52.897Z,950.73
2022-12-14T01:30:36.312Z,950.63
2022-12-14T01:30:54.980Z,950.63
2022-12-14T01:31:25.895Z,950.52
2022-12-14T01:31:56.884Z,950.52
2022-12-14T01:32:27.910Z,950.63
2022-12-14T01:32:58.869Z,950.63
2022-12-14T01:33:30.870Z,950.63
2022-12-14T01:34:00.998Z,950.63
2022-12-14T01:34:31.877Z,950.83
2022-12-14T01:35:02.986Z,950.52
2022-12-14T01:35:33.924Z,950.52
2022-12-14T01:36:04.883Z,950.83
2022-12-14T01:36:35.902Z,950.83
2022-12-14T01:37:06.968Z,950.73
2022-12-14T01:37:38.126Z,950.73
2022-12-14T01:38:08.889Z,950.63
2022-12-14T01:38:40.900Z,950.63
2022-12-14T01:39:10.883Z,950.73
2022-12-14T01:39:41.881Z,950.73
2022-12-14T01:40:13.436Z,950.63
2022-12-14T01:40:43.952Z,950.63
2022-12-14T01:41:14.915Z,950.63
2022-12-14T01:41:45.928Z,950.63
2022-12-14T01:42:16.922Z,950.63
2022-12-14T01:42:47.899Z,950.63
2022-12-14T01:43:18.930Z,950.73
2022-12-14T01:43:50.895Z,950.73
2022-12-14T01:44:20.933Z,950.73
2022-12-14T01:44:51.926Z,950.73
2022-12-14T01:45:35.217Z,950.32
2022-12-14T01:45:53.884Z,950.32
2022-12-14T01:46:24.974Z,950.73
2022-12-14T01:46:56.050Z,950.73
2022-12-14T01:47:26.896Z,950.42
2022-12-14T01:47:57.898Z,950.42
2022-12-14T01:48:28.870Z,950.52
2022-12-14T01:49:01.028Z,950.52
2022-12-14T01:49:30.933Z,950.52
2022-12-14T01:50:02.054Z,950.73
2022-12-14T01:50:32.893Z,950.73
2022-12-14T01:51:03.894Z,950.73
2022-12-14T01:51:34.943Z,950.73
2022-12-14T01:52:05.867Z,950.73
2022-12-14T01:52:36.874Z,950.73
2022-12-14T01:53:07.929Z,950.73
2022-12-14T01:53:38.872Z,950.73
2022-12-14T01:54:10.886Z,950.73
2022-12-14T01:54:40.929Z,950.73
2022-12-14T01:55:11.904Z,950.93
2022-12-14T01:55:42.894Z,950.93
2022-12-14T01:56:13.869Z,951.03
2022-12-14T01:56:44.937Z,951.03
2022-12-14T01:57:15.919Z,950.93
2022-12-14T01:57:46.884Z,950.93
2022-12-14T01:58:17.906Z,950.83
2022-12-14T01:58:48.883Z,950.83
2022-12-14T01:59:20.923Z,950.73
2022-12-14T01:59:50.882Z,950.73
2022-12-14T02:00:34.199Z,950.73
2022-12-14T02:00:52.876Z,950.73
2022-12-14T02:01:24.010Z,950.73
2022-12-14T02:01:54.956Z,950.73
2022-12-14T02:02:25.945Z,950.83
2022-12-14T02:02:57.064Z,950.83
2022-12-14T02:03:28.444Z,950.63
2022-12-14T02:03:58.871Z,950.63
2022-12-14T02:04:30.872Z,950.63
2022-12-14T02:05:01.046Z,950.63
2022-12-14T02:05:32.008Z,950.73
2022-12-14T02:06:02.975Z,950.83
2022-12-14T02:06:33.883Z,950.83
2022-12-14T02:07:04.963Z,950.73
2022-12-14T02:07:35.867Z,950.73
2022-12-14T02:08:06.903Z,950.73
2022-12-14T02:08:37.892Z,950.73
2022-12-14T02:09:08.865Z,950.73
2022-12-14T02:09:40.916Z,950.73
2022-12-14T02:10:10.904Z,950.42
2022-12-14T02:10:41.860Z,950.42
2022-12-14T02:11:12.936Z,950.52
2022-12-14T02:11:43.912Z,950.52
2022-12-14T02:12:14.894Z,950.42
2022-12-14T02:12:45.858Z,950.42
2022-12-14T02:13:16.898Z,950.63
2022-12-14T02:13:48.872Z,950.63
2022-12-14T02:14:18.863Z,950.42
2022-12-14T02:14:50.870Z,950.42
2022-12-14T02:15:33.202Z,950.63
2022-12-14T02:15:51.953Z,950.63
2022-12-14T02:16:22.953Z,950.63
2022-12-14T02:16:53.914Z,950.63
2022-12-14T02:17:24.926Z,950.73
2022-12-14T02:17:55.923Z,950.73
2022-12-14T02:18:26.867Z,950.42
2022-12-14T02:18:57.874Z,950.42
2022-12-14T02:19:28.923Z,950.42
2022-12-14T02:20:01.106Z,950.42
2022-12-14T02:20:30.891Z,950.52
2022-12-14T02:21:02.002Z,950.42
2022-12-14T02:21:32.875Z,950.42
2022-12-14T02:22:03.878Z,950.32
2022-12-14T02:22:34.934Z,950.32
2022-12-14T02:23:05.937Z,950.42
2022-12-14T02:23:36.875Z,950.42
2022-12-14T02:24:07.922Z,950.52
2022-12-14T02:24:38.876Z,950.52
2022-12-14T02:25:10.929Z,950.63
2022-12-14T02:25:40.873Z,950.63
2022-12-14T02:26:11.860Z,950.73
2022-12-14T02:26:42.866Z,950.73
2022-12-14T02:27:13.863Z,950.73
2022-12-14T02:27:44.886Z,950.73
2022-12-14T02:28:15.877Z,950.22
2022-12-14T02:28:46.886Z,950.22
2022-12-14T02:29:17.881Z,950.73
2022-12-14T02:29:48.875Z,950.73
2022-12-14T02:30:33.236Z,950.52
2022-12-14T02:30:50.863Z,950.52
2022-12-14T02:31:21.939Z,950.63
2022-12-14T02:31:52.863Z,950.63
2022-12-14T02:32:23.892Z,950.52
2022-12-14T02:32:54.977Z,950.52
2022-12-14T02:33:26.318Z,950.52
2022-12-14T02:33:56.860Z,950.52
2022-12-14T02:34:27.879Z,950.42
2022-12-14T02:34:58.875Z,950.42
2022-12-14T02:35:30.864Z,950.63
2022-12-14T02:36:01.050Z,950.63
2022-12-14T02:36:31.911Z,950.42
2022-12-14T02:37:02.956Z,950.42
2022-12-14T02:37:33.873Z,950.42
2022-12-14T02:38:04.881Z,950.42
2022-12-14T02:38:35.879Z,950.42
2022-12-14T02:39:06.920Z,950.42
2022-12-14T02:39:37.861Z,950.42
2022-12-14T02:40:08.928Z,950.42
2022-12-14T02:40:40.861Z,950.42
2022-12-14T02:41:11.170Z,950.52
2022-12-14T02:41:41.869Z,950.52
2022-12-14T02:42:12.866Z,950.52
2022-12-14T02:42:43.861Z,950.52
2022-12-14T02:43:14.935Z,950.42
2022-12-14T02:43:45.888Z,950.42
2022-12-14T02:44:16.894Z,950.32
2022-12-14T02:44:47.930Z,950.32
2022-12-14T02:45:31.230Z,950.63
2022-12-14T02:45:50.922Z,950.63
2022-12-14T02:46:20.923Z,950.42
2022-12-14T02:46:51.954Z,950.42
2022-12-14T02:47:22.848Z,950.42
2022-12-14T02:47:53.901Z,950.42
2022-12-14T02:48:24.968Z,950.52
2022-12-14T02:48:55.880Z,950.52
2022-12-14T02:49:26.865Z,950.52
2022-12-14T02:49:57.865Z,950.52
2022-12-14T02:50:28.984Z,950.42
2022-12-14T02:51:01.121Z,950.42
2022-12-14T02:51:30.905Z,950.32
2022-12-14T02:52:02.007Z,950.42
2022-12-14T02:52:32.951Z,950.42
2022-12-14T02:53:03.874Z,950.22
2022-12-14T02:53:34.948Z,950.22
2022-12-14T02:54:05.872Z,950.22
2022-12-14T02:54:36.849Z,950.22
2022-12-14T02:55:07.930Z,950.02
2022-12-14T02:55:38.844Z,950.02
2022-12-14T02:56:10.870Z,950.12
2022-12-14T02:56:40.865Z,950.12
2022-12-14T02:57:11.877Z,950.12
2022-12-14T02:57:42.863Z,950.12
2022-12-14T02:58:13.865Z,950.02
2022-12-14T02:58:44.873Z,950.02
2022-12-14T02:59:15.878Z,950.12
2022-12-14T02:59:46.915Z,950.12
2022-12-14T03:00:30.310Z,950.32
2022-12-14T03:00:48.997Z,950.32
2022-12-14T03:01:20.929Z,950.12
2022-12-14T03:01:50.935Z,950.12
2022-12-14T03:02:22.021Z,950.42
2022-12-14T03:02:52.925Z,950.42
2022-12-14T03:03:24.234Z,950.02
2022-12-14T03:03:54.898Z,950.02
2022-12-14T03:04:25.919Z,950.22
2022-12-14T03:04:57.083Z,950.22
2022-12-14T03:05:27.863Z,949.91
2022-12-14T03:05:58.923Z,949.91
2022-12-14T03:06:30.856Z,950.12
2022-12-14T03:07:00.999Z,950.12
2022-12-14T03:07:31.923Z,950.22
2022-12-14T03:08:02.936Z,950.12
2022-12-14T03:08:33.920Z,950.12
2022-12-14T03:09:04.925Z,950.12
2022-12-14T03:09:35.869Z,950.12
2022-12-14T03:10:06.961Z,950.02
2022-12-14T03:10:37.855Z,950.02
2022-12-14T03:11:08.877Z,950.02
2022-12-14T03:11:40.862Z,950.02
2022-12-14T03:12:10.866Z,950.12
2022-12-14T03:12:41.859Z,950.12
2022-12-14T03:13:12.846Z,950.22
2022-12-14T03:13:43.921Z,950.22
2022-12-14T03:14:14.854Z,950.22
2022-12-14T03:14:45.858Z,950.22
2022-12-14T03:15:29.178Z,950.02
2022-12-14T03:15:47.853Z,950.02
2022-12-14T03:16:18.929Z,950.02
2022-12-14T03:16:50.856Z,950.02
2022-12-14T03:17:20.905Z,950.02
2022-12-14T03:17:51.870Z,950.02
2022-12-14T03:18:22.858Z,949.91
2022-12-14T03:18:53.875Z,949.91
2022-12-14T03:19:24.890Z,949.81
2022-12-14T03:19:55.854Z,949.81
2022-12-14T03:20:26.949Z,949.71
2022-12-14T03:20:57.850Z,949.71
2022-12-14T03:21:28.862Z,949.51
2022-12-14T03:22:01.030Z,949.51
2022-12-14T03:22:30.855Z,949.71
2022-12-14T03:23:01.975Z,949.61
2022-12-14T03:23:32.854Z,949.61
2022-12-14T03:24:03.926Z,949.61
2022-12-14T03:24:34.989Z,949.61
2022-12-14T03:25:05.847Z,949.44
2022-12-14T03:25:36.882Z,949.44
2022-12-14T03:26:07.864Z,949.61
2022-12-14T03:26:42.834Z,949.61
2022-12-14T03:27:10.863Z,949.51
2022-12-14T03:27:40.898Z,949.51
2022-12-14T03:28:11.852Z,949.71
2022-12-14T03:28:42.871Z,949.71
2022-12-14T03:29:13.924Z,949.51
2022-12-14T03:29:44.855Z,949.51
2022-12-14T03:30:58.360Z,949.51
2022-12-14T03:31:18.077Z,949.51
2022-12-14T03:31:49.290Z,949.51
2022-12-14T03:32:20.877Z,949.61
2022-12-14T03:32:50.904Z,949.61
2022-12-14T03:33:21.832Z,949.71
2022-12-14T03:33:52.845Z,949.71
2022-12-14T03:34:24.072Z,949.51
2022-12-14T03:34:54.920Z,949.51
2022-12-14T03:35:25.860Z,949.81
2022-12-14T03:35:56.845Z,949.81
2022-12-14T03:36:27.833Z,949.61
2022-12-14T03:36:58.855Z,949.61
2022-12-14T03:37:30.904Z,949.71
2022-12-14T03:38:01.037Z,949.71
2022-12-14T03:38:31.907Z,949.51
2022-12-14T03:39:02.895Z,949.61
2022-12-14T03:39:33.851Z,949.61
2022-12-14T03:40:05.046Z,949.61
2022-12-14T03:40:35.883Z,949.61
2022-12-14T03:41:06.918Z,949.71
2022-12-14T03:41:37.900Z,949.71
2022-12-14T03:42:08.916Z,949.61
2022-12-14T03:42:40.853Z,949.61
2022-12-14T03:43:10.907Z,949.61
2022-12-14T03:43:41.862Z,949.61
2022-12-14T03:44:12.888Z,949.61
2022-12-14T03:44:49.003Z,949.61
2022-12-14T03:45:27.237Z,949.71
2022-12-14T03:45:46.063Z,949.71
2022-12-14T03:46:16.875Z,949.51
2022-12-14T03:46:47.843Z,949.51
2022-12-14T03:47:18.859Z,949.51
2022-12-14T03:47:50.896Z,949.51
2022-12-14T03:48:20.868Z,949.51
2022-12-14T03:48:51.868Z,949.51
2022-12-14T03:49:22.841Z,949.51
2022-12-14T03:49:54.042Z,949.51
2022-12-14T03:50:24.938Z,949.51
2022-12-14T03:50:55.908Z,949.51
2022-12-14T03:51:26.848Z,950.02
2022-12-14T03:51:57.867Z,950.02
2022-12-14T03:52:28.891Z,949.61
2022-12-14T03:53:01.055Z,949.61
2022-12-14T03:53:31.126Z,949.61
2022-12-14T03:54:01.978Z,949.91
2022-12-14T03:54:32.905Z,949.91
2022-12-14T03:55:03.860Z,949.81
2022-12-14T03:55:34.950Z,949.81
2022-12-14T03:56:05.914Z,949.81
2022-12-14T03:56:36.837Z,949.81
2022-12-14T03:57:07.872Z,949.61
2022-12-14T03:57:38.905Z,949.61
2022-12-14T03:58:10.844Z,949.81
2022-12-14T03:58:40.850Z,949.81
2022-12-14T03:59:11.832Z,949.61
2022-12-14T03:59:42.837Z,949.61
2022-12-14T04:00:26.233Z,949.61
2022-12-14T04:00:44.878Z,949.61
2022-12-14T04:01:15.976Z,949.61
2022-12-14T04:01:47.049Z,949.61
2022-12-14T04:02:17.977Z,949.61
2022-12-14T04:02:49.024Z,949.61
2022-12-14T04:03:20.877Z,949.51
2022-12-14T04:03:50.839Z,949.51
2022-12-14T04:04:21.903Z,949.61
2022-12-14T04:04:52.865Z,949.61
2022-12-14T04:05:23.953Z,949.71
2022-12-14T04:05:54.865Z,949.71
2022-12-14T04:06:25.865Z,949.61
2022-12-14T04:06:56.853Z,949.61
2022-12-14T04:07:27.854Z,949.81
2022-12-14T04:07:58.858Z,949.81
2022-12-14T04:08:30.859Z,949.61
2022-12-14T04:09:01.061Z,949.61
2022-12-14T04:09:31.845Z,949.61
2022-12-14T04:10:02.914Z,949.71
2022-12-14T04:10:33.904Z,949.71
2022-12-14T04:11:04.889Z,949.91
2022-12-14T04:11:35.893Z,949.91
2022-12-14T04:12:06.930Z,949.71
2022-12-14T04:12:37.838Z,949.71
2022-12-14T04:13:08.860Z,949.61
2022-12-14T04:13:40.881Z,949.61
2022-12-14T04:14:10.843Z,949.51
2022-12-14T04:14:41.848Z,949.51
2022-12-14T04:15:25.234Z,949.61
2022-12-14T04:15:43.868Z,949.61
2022-12-14T04:16:14.923Z,949.61
2022-12-14T04:16:46.110Z,949.61
2022-12-14T04:17:16.844Z,950.02
2022-12-14T04:17:47.894Z,950.02
2022-12-14T04:18:18.846Z,949.81
2022-12-14T04:18:55.706Z,949.81
2022-12-14T04:19:20.830Z,949.71
2022-12-14T04:19:51.866Z,949.71
2022-12-14T04:20:22.863Z,949.81
2022-12-14T04:20:53.877Z,949.81
2022-12-14T04:21:24.894Z,949.91
2022-12-14T04:21:55.847Z,949.91
2022-12-14T04:22:26.854Z,950.02
2022-12-14T04:22:57.881Z,950.02
2022-12-14T04:23:29.169Z,949.61
2022-12-14T04:24:01.020Z,949.61
2022-12-14T04:24:30.840Z,949.71
2022-12-14T04:25:02.028Z,949.91
2022-12-14T04:25:32.904Z,949.91
2022-12-14T04:26:03.837Z,949.91
2022-12-14T04:26:34.835Z,949.91
2022-12-14T04:27:05.921Z,949.81
2022-12-14T04:27:36.846Z,949.81
2022-12-14T04:28:07.848Z,949.91
2022-12-14T04:28:38.855Z,949.91
2022-12-14T04:29:10.842Z,949.61
2022-12-14T04:29:47.100Z,949.61
2022-12-14T04:30:24.277Z,949.81
2022-12-14T04:30:42.876Z,949.81
2022-12-14T04:31:13.937Z,949.61
2022-12-14T04:31:44.887Z,949.61
2022-12-14T04:32:15.866Z,949.51
2022-12-14T04:32:46.935Z,949.51
2022-12-14T04:33:17.844Z,949.44
2022-12-14T04:33:48.844Z,949.44
2022-12-14T04:34:20.828Z,949.51
2022-12-14T04:34:50.839Z,949.51
2022-12-14T04:35:21.864Z,949.34
2022-12-14T04:35:52.832Z,949.34
2022-12-14T04:36:24.043Z,949.61
2022-12-14T04:36:54.837Z,949.61
2022-12-14T04:37:25.926Z,949.24
2022-12-14T04:37:56.835Z,949.24
2022-12-14T04:38:27.823Z,949.44
2022-12-14T04:38:59.051Z,949.44
2022-12-14T04:39:30.893Z,949.51
2022-12-14T04:40:01.008Z,949.51
2022-12-14T04:40:31.907Z,949.34
2022-12-14T04:41:02.878Z,949.44
2022-12-14T04:41:33.851Z,949.44
2022-12-14T04:42:04.947Z,949.24
2022-12-14T04:42:35.964Z,949.24
2022-12-14T04:43:06.880Z,949.44
2022-12-14T04:43:37.835Z,949.44
2022-12-14T04:44:08.918Z,949.34
2022-12-14T04:44:40.861Z,949.34
2022-12-14T04:45:23.223Z,949.34
2022-12-14T04:45:41.874Z,949.34
2022-12-14T04:46:12.877Z,949.44
2022-12-14T04:46:43.834Z,949.44
2022-12-14T04:47:14.830Z,949.61
2022-12-14T04:47:45.824Z,949.61
2022-12-14T04:48:16.831Z,949.71
2022-12-14T04:48:47.855Z,949.71
2022-12-14T04:49:18.920Z,949.44
2022-12-14T04:49:50.872Z,949.44
2022-12-14T04:50:20.871Z,949.24
2022-12-14T04:50:51.823Z,949.24
2022-12-14T04:51:22.800Z,949.44
2022-12-14T04:51:53.842Z,949.44
2022-12-14T04:52:24.826Z,949.34
2022-12-14T04:52:55.943Z,949.34
2022-12-14T04:53:27.165Z,949.34
2022-12-14T04:53:57.845Z,949.34
2022-12-14T04:54:28.891Z,949.51
2022-12-14T04:55:00.973Z,949.51
2022-12-14T04:55:30.888Z,949.24
2022-12-14T04:56:01.957Z,949.24
2022-12-14T04:56:32.844Z,949.24
2022-12-14T04:57:03.875Z,949.24
2022-12-14T04:57:34.810Z,949.24
2022-12-14T04:58:06.966Z,949.34
2022-12-14T04:58:36.859Z,949.34
2022-12-14T04:59:07.849Z,949.03
2022-12-14T04:59:38.854Z,949.03
2022-12-14T05:00:23.379Z,949.34
2022-12-14T05:00:40.868Z,949.34
2022-12-14T05:01:12.102Z,949.14
2022-12-14T05:01:42.956Z,949.14
2022-12-14T05:02:14.046Z,949.14
2022-12-14T05:02:44.843Z,949.14
2022-12-14T05:03:15.832Z,949.24
2022-12-14T05:03:46.900Z,949.24
2022-12-14T05:04:17.844Z,949.24
2022-12-14T05:04:49.077Z,949.24
2022-12-14T05:05:20.816Z,949.24
2022-12-14T05:05:50.821Z,949.24
2022-12-14T05:06:21.845Z,949.14
2022-12-14T05:06:52.824Z,949.14
2022-12-14T05:07:23.853Z,949.34
2022-12-14T05:07:54.865Z,949.34
2022-12-14T05:08:26.884Z,949.03
2022-12-14T05:08:56.838Z,949.03
2022-12-14T05:09:27.819Z,949.14
2022-12-14T05:09:58.845Z,949.14
2022-12-14T05:10:30.920Z,949.14
2022-12-14T05:11:30.181Z,949.14
2022-12-14T05:12:02.859Z,949.14
2022-12-14T05:12:33.893Z,949.14
2022-12-14T05:13:04.829Z,949.24
2022-12-14T05:13:35.829Z,949.24
2022-12-14T05:14:06.896Z,949.24
2022-12-14T05:14:37.819Z,949.24
2022-12-14T05:15:21.286Z,949.03
2022-12-14T05:15:40.873Z,949.03
2022-12-14T05:16:10.926Z,948.93
2022-12-14T05:16:41.903Z,948.93
2022-12-14T05:17:12.855Z,948.73
2022-12-14T05:17:43.825Z,948.73
2022-12-14T05:18:14.816Z,948.83
2022-12-14T05:18:45.854Z,948.83
2022-12-14T05:19:16.837Z,948.93
2022-12-14T05:19:48.811Z,948.93
2022-12-14T05:20:18.873Z,948.93
2022-12-14T05:20:50.818Z,948.93
2022-12-14T05:21:20.817Z,949.03
2022-12-14T05:21:51.832Z,949.03
2022-12-14T05:22:22.816Z,948.93
2022-12-14T05:22:53.849Z,948.93
2022-12-14T05:23:25.236Z,948.83
2022-12-14T05:23:55.972Z,948.83
2022-12-14T05:24:26.860Z,948.93
2022-12-14T05:24:57.815Z,948.93
2022-12-14T05:25:28.901Z,948.93
2022-12-14T05:26:01.061Z,948.93
2022-12-14T05:26:30.830Z,948.83
2022-12-14T05:27:01.972Z,949.03
2022-12-14T05:27:32.889Z,949.03
2022-12-14T05:28:03.841Z,948.83
2022-12-14T05:28:35.021Z,948.83
2022-12-14T05:29:05.829Z,949.14
2022-12-14T05:29:36.823Z,949.14
2022-12-14T05:30:20.311Z,948.83
2022-12-14T05:30:38.871Z,948.83
2022-12-14T05:31:10.973Z,948.83
2022-12-14T05:31:40.842Z,948.83
2022-12-14T05:32:11.901Z,948.93
2022-12-14T05:32:42.814Z,948.93
2022-12-14T05:33:13.831Z,948.63
2022-12-14T05:33:44.813Z,948.63
2022-12-14T05:34:15.826Z,948.73
2022-12-14T05:34:46.843Z,948.73
2022-12-14T05:35:17.847Z,948.73
2022-12-14T05:35:48.906Z,948.73
2022-12-14T05:36:20.853Z,948.73
2022-12-14T05:36:50.896Z,948.73
2022-12-14T05:37:21.812Z,948.53
2022-12-14T05:37:52.821Z,948.53
2022-12-14T05:38:24.034Z,948.63
2022-12-14T05:38:54.849Z,948.63
2022-12-14T05:39:25.880Z,948.42
2022-12-14T05:39:56.810Z,948.42
2022-12-14T05:40:27.820Z,948.63
2022-12-14T05:40:58.829Z,948.63
2022-12-14T05:41:30.816Z,948.53
2022-12-14T05:42:00.988Z,948.53
2022-12-14T05:42:31.836Z,948.53
2022-12-14T05:43:02.854Z,948.42
2022-12-14T05:43:33.863Z,948.42
2022-12-14T05:44:04.808Z,948.42
2022-12-14T05:44:35.820Z,948.42
2022-12-14T05:45:19.189Z,948.32
2022-12-14T05:45:37.859Z,948.32
2022-12-14T05:46:08.856Z,948.63
2022-12-14T05:46:40.846Z,948.63
2022-12-14T05:47:10.892Z,948.53
2022-12-14T05:47:41.821Z,948.53
2022-12-14T05:48:12.848Z,948.42
2022-12-14T05:48:47.548Z,948.42
2022-12-14T05:49:14.838Z,948.32
2022-12-14T05:49:45.863Z,948.32
2022-12-14T05:50:16.855Z,948.32
2022-12-14T05:50:47.828Z,948.32
2022-12-14T05:51:18.892Z,948.32
2022-12-14T05:51:51.077Z,948.32
2022-12-14T05:52:20.817Z,948.12
2022-12-14T05:52:51.819Z,948.12
2022-12-14T05:53:22.855Z,948.42
2022-12-14T05:53:53.840Z,948.42
2022-12-14T05:54:24.808Z,948.22
2022-12-14T05:54:59.513Z,948.22
2022-12-14T05:55:26.845Z,948.12
2022-12-14T05:55:57.816Z,948.12
2022-12-14T05:56:28.811Z,948.22
2022-12-14T05:57:01.045Z,948.22
2022-12-14T05:57:30.816Z,948.32
2022-12-14T05:58:01.943Z,948.32
2022-12-14T05:58:32.830Z,948.32
2022-12-14T05:59:03.854Z,948.12
2022-12-14T05:59:34.813Z,948.12
2022-12-14T06:00:18.230Z,948.22
2022-12-14T06:00:36.803Z,948.22
2022-12-14T06:01:07.838Z,948.12
2022-12-14T06:01:38.891Z,948.12
2022-12-14T06:02:11.095Z,948.12
2022-12-14T06:02:40.938Z,948.12
2022-12-14T06:03:11.820Z,948.12
2022-12-14T06:03:42.854Z,948.12
2022-12-14T06:04:13.874Z,948.32
2022-12-14T06:04:44.917Z,948.32
2022-12-14T06:05:15.819Z,948.42
2022-12-14T06:05:46.817Z,948.42
2022-12-14T06:06:17.824Z,948.12
2022-12-14T06:06:48.912Z,948.12
2022-12-14T06:07:26.086Z,948.02
2022-12-14T06:07:50.810Z,948.02
2022-12-14T06:08:21.823Z,948.22
2022-12-14T06:08:52.870Z,948.22
2022-12-14T06:09:23.840Z,948.22
2022-12-14T06:09:54.818Z,948.22
2022-12-14T06:10:25.894Z,948.32
2022-12-14T06:10:56.817Z,948.32
2022-12-14T06:11:27.808Z,948.12
2022-12-14T06:11:58.927Z,948.12
2022-12-14T06:12:30.821Z,948.22
2022-12-14T06:13:01.037Z,948.22
2022-12-14T06:13:31.866Z,948.22
2022-12-14T06:14:02.843Z,948.22
2022-12-14T06:14:33.820Z,948.22
2022-12-14T06:15:17.173Z,948.32
2022-12-14T06:15:35.885Z,948.32
2022-12-14T06:16:06.925Z,948.12
2022-12-14T06:16:37.800Z,948.12
2022-12-14T06:17:08.900Z,948.02
2022-12-14T06:17:40.839Z,948.02
2022-12-14T06:18:10.860Z,948.02
2022-12-14T06:18:41.810Z,948.02
2022-12-14T06:19:12.800Z,948.22
2022-12-14T06:19:49.824Z,948.22
2022-12-14T06:20:14.828Z,948.02
2022-12-14T06:20:45.816Z,948.02
2022-12-14T06:21:16.812Z,948.12
2022-12-14T06:21:47.867Z,948.12
2022-12-14T06:22:18.827Z,948.12
2022-12-14T06:22:50.856Z,948.12
2022-12-14T06:23:20.807Z,948.12
2022-12-14T06:23:51.813Z,948.12
2022-12-14T06:24:22.794Z,948.12
2022-12-14T06:24:53.849Z,948.12
2022-12-14T06:25:24.815Z,948.42
2022-12-14T06:25:55.831Z,948.42
2022-12-14T06:26:26.812Z,948.12
2022-12-14T06:26:57.792Z,948.12
2022-12-14T06:27:28.812Z,948.22
2022-12-14T06:28:00.988Z,948.22